createdAt,value
2022-08-20T00:03:50.212Z,58.86
2022-08-20T00:09:10.814Z,59.01
2022-08-20T00:14:28.058Z,59.03
2022-08-20T00:19:40.188Z,59.13
2022-08-20T00:24:48.306Z,59.37
2022-08-20T00:30:06.188Z,59.50
2022-08-20T00:35:37.172Z,59.65
2022-08-20T00:40:47.869Z,59.60
2022-08-20T00:46:10.408Z,59.81
2022-08-20T00:51:27.679Z,59.90
2022-08-20T00:56:39.127Z,60.08
2022-08-20T01:02:07.903Z,60.17
2022-08-20T01:07:20.905Z,60.46
2022-08-20T01:12:42.626Z,60.58
2022-08-20T01:18:15.261Z,60.65
2022-08-20T01:23:30.514Z,61.00
2022-08-20T01:28:45.031Z,61.28
2022-08-20T01:34:18.288Z,61.49
2022-08-20T01:40:16.344Z,61.64
2022-08-20T01:45:34.140Z,61.63
2022-08-20T01:50:53.342Z,61.92
2022-08-20T01:56:24.888Z,62.13
2022-08-20T02:01:46.627Z,62.24
2022-08-20T02:07:07.176Z,62.45
2022-08-20T02:12:31.924Z,62.72
2022-08-20T02:17:42.205Z,62.89
2022-08-20T02:22:56.728Z,62.95
2022-08-20T02:28:18.145Z,63.08
2022-08-20T02:33:36.977Z,63.18
2022-08-20T02:39:09.244Z,63.40
2022-08-20T02:44:19.189Z,63.45
2022-08-20T02:49:47.365Z,63.61
2022-08-20T02:55:12.482Z,63.75
2022-08-20T03:00:57.321Z,63.88
2022-08-20T03:06:14.406Z,63.95
2022-08-20T03:11:39.932Z,64.30
2022-08-20T03:16:57.286Z,64.61
2022-08-20T03:22:13.914Z,64.78
2022-08-20T03:27:42.423Z,64.93
2022-08-20T03:32:50.351Z,65.24
2022-08-20T03:38:10.517Z,65.29
2022-08-20T03:43:35.670Z,65.41
2022-08-20T03:49:03.603Z,65.63
2022-08-20T03:54:16.073Z,65.84
2022-08-20T03:59:45.277Z,66.03
2022-08-20T04:05:03.917Z,66.03
2022-08-20T04:10:32.579Z,66.26
2022-08-20T04:15:43.146Z,66.36
2022-08-20T04:21:10.253Z,66.35
2022-08-20T04:26:38.153Z,66.56
2022-08-20T04:32:07.449Z,66.73
2022-08-20T04:37:25.927Z,66.68
2022-08-20T04:42:45.353Z,67.04
2022-08-20T04:48:14.290Z,66.94
2022-08-20T04:53:26.240Z,66.92
2022-08-20T04:58:40.077Z,66.93
2022-08-20T05:03:56.149Z,66.92
2022-08-20T05:09:09.598Z,66.97
2022-08-20T05:14:37.495Z,66.93
2022-08-20T05:19:47.854Z,67.00
2022-08-20T05:24:57.311Z,67.05
2022-08-20T05:30:11.776Z,66.97
2022-08-20T05:35:33.498Z,66.70
2022-08-20T05:40:52.465Z,66.50
2022-08-20T05:46:20.432Z,66.46
2022-08-20T05:51:36.310Z,66.60
2022-08-20T05:56:57.686Z,66.41
2022-08-20T06:02:36.082Z,66.29
2022-08-20T06:08:07.110Z,66.23
2022-08-20T06:13:39.670Z,66.08
2022-08-20T06:19:11.463Z,66.07
2022-08-20T06:24:20.372Z,66.06
2022-08-20T06:29:40.927Z,66.30
2022-08-20T06:34:50.323Z,66.37
2022-08-20T06:40:04.475Z,66.49
2022-08-20T06:45:13.659Z,66.74
2022-08-20T06:50:47.920Z,66.88
2022-08-20T06:56:07.642Z,66.84
2022-08-20T07:01:21.547Z,66.92
2022-08-20T07:06:51.550Z,66.89
2022-08-20T07:11:59.295Z,66.97
2022-08-20T07:17:27.084Z,67.01
2022-08-20T07:22:46.204Z,67.13
2022-08-20T07:28:06.073Z,67.30
2022-08-20T07:33:22.924Z,67.40
2022-08-20T07:38:52.962Z,67.36
2022-08-20T07:44:08.402Z,67.21
2022-08-20T07:49:40.840Z,67.15
2022-08-20T07:54:52.280Z,66.95
2022-08-20T08:00:00.598Z,67.09
2022-08-20T08:05:16.311Z,66.86
2022-08-20T08:10:26.244Z,66.65
2022-08-20T08:15:40.126Z,66.62
2022-08-20T08:20:49.876Z,66.59
2022-08-20T08:25:57.677Z,66.58
2022-08-20T08:31:05.472Z,66.66
2022-08-20T08:36:18.569Z,66.47
2022-08-20T08:41:35.658Z,66.50
2022-08-20T08:47:14.340Z,66.43
2022-08-20T08:52:26.062Z,66.44
2022-08-20T08:57:51.077Z,66.32
2022-08-20T09:03:02.790Z,66.09
2022-08-20T09:08:20.425Z,66.15
2022-08-20T09:13:37.821Z,66.12
2022-08-20T09:19:09.354Z,66.05
2022-08-20T09:24:27.862Z,65.94
2022-08-20T09:29:38.954Z,65.80
2022-08-20T09:34:52.628Z,65.85
2022-08-20T09:40:04.040Z,65.97
2022-08-20T09:45:16.132Z,65.74
2022-08-20T09:50:26.894Z,65.58
2022-08-20T09:55:51.704Z,65.32
2022-08-20T10:01:13.771Z,65.12
2022-08-20T10:06:24.511Z,64.90
2022-08-20T10:11:35.554Z,64.73
2022-08-20T10:16:59.927Z,64.55
2022-08-20T10:22:18.138Z,64.23
2022-08-20T10:27:25.775Z,63.77
2022-08-20T10:32:36.613Z,63.65
2022-08-20T10:37:49.543Z,63.24
2022-08-20T10:42:57.284Z,62.80
2022-08-20T10:48:25.700Z,62.84
2022-08-20T10:53:42.435Z,62.51
2022-08-20T10:58:50.218Z,61.98
2022-08-20T11:04:06.036Z,61.82
2022-08-20T11:09:14.145Z,61.95
2022-08-20T11:14:24.861Z,61.51
2022-08-20T11:19:47.014Z,61.25
2022-08-20T11:24:55.701Z,61.09
2022-08-20T11:30:09.936Z,60.82
2022-08-20T11:35:42.065Z,60.81
2022-08-20T11:40:58.025Z,60.22
2022-08-20T11:46:10.249Z,60.07
2022-08-20T11:51:50.165Z,59.67
2022-08-20T11:57:23.595Z,59.64
2022-08-20T12:02:41.230Z,59.43
2022-08-20T12:07:51.910Z,59.17
2022-08-20T12:13:20.004Z,58.98
2022-08-20T12:18:37.434Z,58.81
2022-08-20T12:23:45.213Z,58.49
2022-08-20T12:29:14.715Z,58.28
2022-08-20T12:34:51.428Z,57.87
2022-08-20T12:40:30.658Z,57.59
2022-08-20T12:46:00.383Z,57.36
2022-08-20T12:51:28.901Z,57.18
2022-08-20T12:56:56.958Z,56.92
2022-08-20T13:02:13.931Z,56.47
2022-08-20T13:07:40.739Z,55.89
2022-08-20T13:12:49.328Z,55.41
2022-08-20T13:18:01.671Z,55.31
2022-08-20T13:23:24.176Z,55.26
2022-08-20T13:28:36.299Z,55.19
2022-08-20T13:33:46.731Z,54.99
2022-08-20T13:39:14.852Z,54.51
2022-08-20T13:44:33.371Z,54.45
2022-08-20T13:49:41.577Z,54.63
2022-08-20T13:55:00.542Z,54.39
2022-08-20T14:00:18.803Z,54.22
2022-08-20T14:05:46.874Z,54.24
2022-08-20T14:11:00.116Z,54.36
2022-08-20T14:16:21.445Z,54.17
2022-08-20T14:21:46.722Z,54.22
2022-08-20T14:26:54.435Z,53.98
2022-08-20T14:32:02.661Z,54.46
2022-08-20T14:37:33.038Z,54.41
2022-08-20T14:42:41.158Z,54.61
2022-08-20T14:47:54.443Z,54.65
2022-08-20T14:53:02.724Z,54.84
2022-08-20T14:58:15.300Z,54.92
2022-08-20T15:03:30.822Z,54.88
2022-08-20T15:08:38.588Z,54.64
2022-08-20T15:13:57.638Z,54.95
2022-08-20T15:19:08.848Z,55.33
2022-08-20T15:24:19.256Z,55.41
2022-08-20T15:29:33.333Z,55.56
2022-08-20T15:34:44.520Z,55.77
2022-08-20T15:39:55.535Z,56.17
2022-08-20T15:45:22.053Z,56.33
2022-08-20T15:51:12.651Z,56.60
2022-08-20T15:56:41.440Z,56.79
2022-08-20T16:01:54.458Z,56.98
2022-08-20T16:07:16.395Z,56.96
2022-08-20T16:12:35.317Z,57.35
2022-08-20T16:18:00.837Z,57.41
2022-08-20T16:23:12.756Z,57.56
2022-08-20T16:28:28.517Z,57.80
2022-08-20T16:33:44.761Z,57.87
2022-08-20T16:38:58.579Z,58.01
2022-08-20T16:44:12.797Z,58.14
2022-08-20T16:49:30.368Z,58.27
2022-08-20T16:54:58.768Z,58.28
2022-08-20T17:00:14.972Z,58.44
2022-08-20T17:05:31.004Z,58.65
2022-08-20T17:11:02.009Z,58.68
2022-08-20T17:16:23.495Z,58.81
2022-08-20T17:21:38.267Z,59.00
2022-08-20T17:27:10.100Z,59.12
2022-08-20T17:32:25.199Z,59.18
2022-08-20T17:37:40.684Z,59.44
2022-08-20T17:43:07.900Z,59.55
2022-08-20T17:48:40.181Z,59.54
2022-08-20T17:54:05.042Z,59.70
2022-08-20T18:00:01.377Z,59.78
2022-08-20T18:05:29.837Z,59.95
2022-08-20T18:11:12.537Z,60.21
2022-08-20T18:16:30.718Z,60.30
2022-08-20T18:22:06.980Z,60.39
2022-08-20T18:27:39.037Z,60.65
2022-08-20T18:33:04.681Z,60.77
2022-08-20T18:38:30.211Z,61.10
2022-08-20T18:44:12.793Z,61.57
2022-08-20T18:49:31.245Z,61.83
2022-08-20T18:54:42.787Z,62.23
2022-08-20T19:00:10.889Z,62.45
2022-08-20T19:05:30.531Z,62.74
2022-08-20T19:10:49.263Z,62.08
2022-08-20T19:16:07.563Z,61.70
2022-08-20T19:21:31.352Z,62.22
2022-08-20T19:26:59.473Z,62.80
2022-08-20T19:37:51.279Z,63.64
2022-08-20T19:43:13.881Z,63.96
2022-08-20T19:48:58.663Z,64.56
2022-08-20T19:54:09.061Z,64.94
2022-08-20T19:59:23.938Z,65.15
2022-08-20T20:04:55.700Z,65.22
2022-08-20T20:10:23.426Z,65.40
2022-08-20T20:15:34.540Z,65.58
2022-08-20T20:20:57.427Z,65.96
2022-08-20T20:26:30.597Z,66.24
2022-08-20T20:32:20.994Z,66.45
2022-08-20T20:37:49.718Z,66.55
2022-08-20T20:43:29.237Z,66.88
2022-08-20T20:48:50.934Z,67.06
2022-08-20T20:54:07.022Z,67.32
2022-08-20T20:59:18.869Z,67.32
2022-08-20T21:04:50.617Z,67.59
2022-08-20T21:10:09.696Z,67.70
2022-08-20T21:15:28.132Z,68.00
2022-08-20T21:20:56.615Z,68.24
2022-08-20T21:26:05.091Z,68.39
2022-08-20T21:31:37.469Z,68.64
2022-08-20T21:36:51.722Z,68.75
2022-08-20T21:42:28.783Z,68.93
2022-08-20T21:47:37.527Z,69.19
2022-08-20T21:52:55.412Z,69.06
2022-08-20T21:58:22.894Z,69.28
2022-08-20T22:03:51.842Z,69.38
2022-08-20T22:09:10.651Z,69.45
2022-08-20T22:14:22.959Z,69.53
2022-08-20T22:19:33.694Z,69.83
2022-08-20T22:24:45.822Z,69.81
2022-08-20T22:30:02.461Z,70.04
2022-08-20T22:35:29.106Z,70.17
2022-08-20T22:40:46.083Z,70.31
2022-08-20T22:46:04.201Z,70.36
2022-08-20T22:51:24.349Z,70.64
2022-08-20T22:56:35.247Z,70.71
2022-08-20T23:01:44.280Z,70.67
2022-08-20T23:06:55.705Z,70.73
2022-08-20T23:12:08.568Z,71.02
2022-08-20T23:17:20.107Z,70.94
2022-08-20T23:22:33.057Z,71.13
2022-08-20T23:28:04.074Z,71.30
2022-08-20T23:33:12.125Z,71.14
2022-08-20T23:38:28.614Z,71.38
2022-08-20T23:43:45.589Z,71.62
2022-08-20T23:48:53.713Z,71.67
2022-08-20T23:54:06.161Z,71.67
2022-08-20T23:59:16.261Z,71.81
